sensor_id;sensor_type;location;lat;lon;timestamp;P1;durP1;ratioP1;P2;durP2;ratioP2
64140;SDS011;50436;50.618;7.932;2023-09-30T00:00:03;0.05;;;0.05;;
64140;SDS011;50436;50.618;7.932;2023-09-30T00:02:56;0.10;;;0.10;;
64140;SDS011;50436;50.618;7.932;2023-09-30T00:05:42;0.00;;;0.00;;
64140;SDS011;50436;50.618;7.932;2023-09-30T00:08:27;0.10;;;0.10;;
64140;SDS011;50436;50.618;7.932;2023-09-30T00:11:15;0.10;;;0.10;;
64140;SDS011;50436;50.618;7.932;2023-09-30T00:14:02;0.10;;;0.10;;
64140;SDS011;50436;50.618;7.932;2023-09-30T00:16:50;0.10;;;0.10;;
64140;SDS011;50436;50.618;7.932;2023-09-30T00:19:36;0.10;;;0.10;;
64140;SDS011;50436;50.618;7.932;2023-09-30T00:22:22;0.10;;;0.10;;
64140;SDS011;50436;50.618;7.932;2023-09-30T00:25:08;0.10;;;0.10;;
64140;SDS011;50436;50.618;7.932;2023-09-30T00:27:54;0.10;;;0.10;;
64140;SDS011;50436;50.618;7.932;2023-09-30T00:30:40;0.10;;;0.10;;
64140;SDS011;50436;50.618;7.932;2023-09-30T00:33:26;0.10;;;0.10;;
64140;SDS011;50436;50.618;7.932;2023-09-30T00:36:11;0.10;;;0.10;;
64140;SDS011;50436;50.618;7.932;2023-09-30T00:38:58;0.10;;;0.10;;
64140;SDS011;50436;50.618;7.932;2023-09-30T00:41:44;0.10;;;0.10;;
64140;SDS011;50436;50.618;7.932;2023-09-30T00:44:30;0.10;;;0.10;;
64140;SDS011;50436;50.618;7.932;2023-09-30T00:47:16;0.10;;;0.10;;
64140;SDS011;50436;50.618;7.932;2023-09-30T00:50:02;0.10;;;0.10;;
64140;SDS011;50436;50.618;7.932;2023-09-30T00:52:50;0.10;;;0.10;;
64140;SDS011;50436;50.618;7.932;2023-09-30T00:55:36;0.10;;;0.10;;
64140;SDS011;50436;50.618;7.932;2023-09-30T00:58:23;0.10;;;0.10;;
64140;SDS011;50436;50.618;7.932;2023-09-30T01:01:14;0.10;;;0.10;;
64140;SDS011;50436;50.618;7.932;2023-09-30T01:04:01;0.08;;;0.08;;
64140;SDS011;50436;50.618;7.932;2023-09-30T01:06:46;0.10;;;0.10;;
64140;SDS011;50436;50.618;7.932;2023-09-30T01:09:33;0.10;;;0.10;;
64140;SDS011;50436;50.618;7.932;2023-09-30T01:12:19;0.10;;;0.10;;
64140;SDS011;50436;50.618;7.932;2023-09-30T01:15:05;0.00;;;0.00;;
64140;SDS011;50436;50.618;7.932;2023-09-30T01:17:54;0.10;;;0.10;;
64140;SDS011;50436;50.618;7.932;2023-09-30T01:20:40;0.10;;;0.10;;
64140;SDS011;50436;50.618;7.932;2023-09-30T01:23:26;0.10;;;0.10;;
64140;SDS011;50436;50.618;7.932;2023-09-30T01:26:13;0.00;;;0.00;;
64140;SDS011;50436;50.618;7.932;2023-09-30T01:29:00;0.10;;;0.10;;
64140;SDS011;50436;50.618;7.932;2023-09-30T01:31:45;0.10;;;0.10;;
64140;SDS011;50436;50.618;7.932;2023-09-30T01:34:35;0.00;;;0.00;;
64140;SDS011;50436;50.618;7.932;2023-09-30T01:37:21;0.10;;;0.10;;
64140;SDS011;50436;50.618;7.932;2023-09-30T01:40:07;0.10;;;0.10;;
64140;SDS011;50436;50.618;7.932;2023-09-30T01:42:56;0.10;;;0.10;;
64140;SDS011;50436;50.618;7.932;2023-09-30T01:45:43;0.10;;;0.10;;
64140;SDS011;50436;50.618;7.932;2023-09-30T01:48:29;0.10;;;0.10;;
64140;SDS011;50436;50.618;7.932;2023-09-30T01:51:15;0.10;;;0.10;;
64140;SDS011;50436;50.618;7.932;2023-09-30T01:54:01;0.10;;;0.10;;
64140;SDS011;50436;50.618;7.932;2023-09-30T01:56:47;0.10;;;0.10;;
64140;SDS011;50436;50.618;7.932;2023-09-30T01:59:33;0.10;;;0.10;;
64140;SDS011;50436;50.618;7.932;2023-09-30T02:02:19;0.10;;;0.10;;
64140;SDS011;50436;50.618;7.932;2023-09-30T02:05:05;0.10;;;0.10;;
64140;SDS011;50436;50.618;7.932;2023-09-30T02:07:53;0.10;;;0.10;;
64140;SDS011;50436;50.618;7.932;2023-09-30T02:10:40;0.10;;;0.10;;
64140;SDS011;50436;50.618;7.932;2023-09-30T02:13:26;0.10;;;0.10;;
64140;SDS011;50436;50.618;7.932;2023-09-30T02:16:14;0.10;;;0.10;;
64140;SDS011;50436;50.618;7.932;2023-09-30T02:19:00;0.10;;;0.10;;
64140;SDS011;50436;50.618;7.932;2023-09-30T02:21:46;0.10;;;0.10;;
64140;SDS011;50436;50.618;7.932;2023-09-30T02:24:33;0.10;;;0.10;;
64140;SDS011;50436;50.618;7.932;2023-09-30T02:27:19;0.10;;;0.10;;
64140;SDS011;50436;50.618;7.932;2023-09-30T02:30:05;0.10;;;0.10;;
64140;SDS011;50436;50.618;7.932;2023-09-30T02:32:52;0.10;;;0.10;;
64140;SDS011;50436;50.618;7.932;2023-09-30T02:35:37;0.00;;;0.00;;
64140;SDS011;50436;50.618;7.932;2023-09-30T02:38:27;0.10;;;0.10;;
64140;SDS011;50436;50.618;7.932;2023-09-30T02:41:14;0.10;;;0.10;;
64140;SDS011;50436;50.618;7.932;2023-09-30T02:44:04;0.00;;;0.00;;
64140;SDS011;50436;50.618;7.932;2023-09-30T02:46:49;0.10;;;0.10;;
64140;SDS011;50436;50.618;7.932;2023-09-30T02:49:36;0.10;;;0.10;;
64140;SDS011;50436;50.618;7.932;2023-09-30T02:52:23;0.10;;;0.10;;
64140;SDS011;50436;50.618;7.932;2023-09-30T02:55:12;0.10;;;0.10;;
64140;SDS011;50436;50.618;7.932;2023-09-30T02:57:58;0.10;;;0.10;;
64140;SDS011;50436;50.618;7.932;2023-09-30T03:00:49;0.10;;;0.10;;
64140;SDS011;50436;50.618;7.932;2023-09-30T03:03:35;0.10;;;0.10;;
64140;SDS011;50436;50.618;7.932;2023-09-30T03:06:21;0.10;;;0.10;;
64140;SDS011;50436;50.618;7.932;2023-09-30T03:09:06;0.10;;;0.10;;
64140;SDS011;50436;50.618;7.932;2023-09-30T03:11:54;0.10;;;0.10;;
64140;SDS011;50436;50.618;7.932;2023-09-30T03:14:41;0.10;;;0.10;;
64140;SDS011;50436;50.618;7.932;2023-09-30T03:17:28;0.10;;;0.10;;
64140;SDS011;50436;50.618;7.932;2023-09-30T03:20:14;0.10;;;0.10;;
64140;SDS011;50436;50.618;7.932;2023-09-30T03:23:04;0.10;;;0.10;;
64140;SDS011;50436;50.618;7.932;2023-09-30T03:25:50;0.10;;;0.10;;
64140;SDS011;50436;50.618;7.932;2023-09-30T03:28:36;0.05;;;0.05;;
64140;SDS011;50436;50.618;7.932;2023-09-30T03:31:23;0.10;;;0.10;;
64140;SDS011;50436;50.618;7.932;2023-09-30T03:34:09;0.10;;;0.10;;
64140;SDS011;50436;50.618;7.932;2023-09-30T03:36:55;0.10;;;0.10;;
64140;SDS011;50436;50.618;7.932;2023-09-30T03:39:44;0.10;;;0.10;;
64140;SDS011;50436;50.618;7.932;2023-09-30T03:42:29;0.10;;;0.10;;
64140;SDS011;50436;50.618;7.932;2023-09-30T03:45:15;0.10;;;0.10;;
64140;SDS011;50436;50.618;7.932;2023-09-30T03:48:01;0.10;;;0.10;;
64140;SDS011;50436;50.618;7.932;2023-09-30T03:50:48;0.10;;;0.10;;
64140;SDS011;50436;50.618;7.932;2023-09-30T03:53:34;0.10;;;0.10;;
64140;SDS011;50436;50.618;7.932;2023-09-30T03:56:21;0.10;;;0.10;;
64140;SDS011;50436;50.618;7.932;2023-09-30T03:59:07;0.10;;;0.10;;
64140;SDS011;50436;50.618;7.932;2023-09-30T04:01:54;0.10;;;0.10;;
64140;SDS011;50436;50.618;7.932;2023-09-30T04:04:40;0.10;;;0.10;;
64140;SDS011;50436;50.618;7.932;2023-09-30T04:07:26;0.10;;;0.10;;
64140;SDS011;50436;50.618;7.932;2023-09-30T04:10:13;0.10;;;0.10;;
64140;SDS011;50436;50.618;7.932;2023-09-30T04:12:58;0.10;;;0.10;;
64140;SDS011;50436;50.618;7.932;2023-09-30T04:15:44;0.10;;;0.10;;
64140;SDS011;50436;50.618;7.932;2023-09-30T04:18:32;0.20;;;0.20;;
64140;SDS011;50436;50.618;7.932;2023-09-30T04:21:17;0.10;;;0.10;;
64140;SDS011;50436;50.618;7.932;2023-09-30T04:24:05;0.10;;;0.10;;
64140;SDS011;50436;50.618;7.932;2023-09-30T04:26:52;0.68;;;0.40;;
64140;SDS011;50436;50.618;7.932;2023-09-30T04:29:42;0.30;;;0.20;;
64140;SDS011;50436;50.618;7.932;2023-09-30T04:32:29;0.28;;;0.20;;
64140;SDS011;50436;50.618;7.932;2023-09-30T04:35:15;0.10;;;0.10;;
64140;SDS011;50436;50.618;7.932;2023-09-30T04:38:01;0.17;;;0.17;;
64140;SDS011;50436;50.618;7.932;2023-09-30T04:40:47;0.10;;;0.10;;
64140;SDS011;50436;50.618;7.932;2023-09-30T04:43:36;0.10;;;0.10;;
64140;SDS011;50436;50.618;7.932;2023-09-30T04:46:25;0.17;;;0.15;;
64140;SDS011;50436;50.618;7.932;2023-09-30T04:49:11;0.10;;;0.10;;
64140;SDS011;50436;50.618;7.932;2023-09-30T04:51:59;0.40;;;0.30;;
64140;SDS011;50436;50.618;7.932;2023-09-30T04:54:45;0.20;;;0.20;;
64140;SDS011;50436;50.618;7.932;2023-09-30T04:57:31;0.10;;;0.10;;
64140;SDS011;50436;50.618;7.932;2023-09-30T05:00:18;0.22;;;0.20;;
64140;SDS011;50436;50.618;7.932;2023-09-30T05:03:10;0.38;;;0.28;;
64140;SDS011;50436;50.618;7.932;2023-09-30T05:05:56;0.40;;;0.20;;
64140;SDS011;50436;50.618;7.932;2023-09-30T05:08:43;0.20;;;0.10;;
64140;SDS011;50436;50.618;7.932;2023-09-30T05:11:29;0.10;;;0.10;;
64140;SDS011;50436;50.618;7.932;2023-09-30T05:14:15;0.10;;;0.10;;
64140;SDS011;50436;50.618;7.932;2023-09-30T05:17:02;0.20;;;0.20;;
64140;SDS011;50436;50.618;7.932;2023-09-30T05:19:50;0.20;;;0.20;;
64140;SDS011;50436;50.618;7.932;2023-09-30T05:22:36;0.52;;;0.32;;
64140;SDS011;50436;50.618;7.932;2023-09-30T05:25:21;0.32;;;0.30;;
64140;SDS011;50436;50.618;7.932;2023-09-30T05:28:11;0.50;;;0.30;;
64140;SDS011;50436;50.618;7.932;2023-09-30T05:30:59;0.47;;;0.30;;
64140;SDS011;50436;50.618;7.932;2023-09-30T05:33:44;1.05;;;0.50;;
64140;SDS011;50436;50.618;7.932;2023-09-30T05:36:30;0.38;;;0.22;;
64140;SDS011;50436;50.618;7.932;2023-09-30T05:39:16;0.40;;;0.30;;
64140;SDS011;50436;50.618;7.932;2023-09-30T05:42:05;0.85;;;0.43;;
64140;SDS011;50436;50.618;7.932;2023-09-30T05:44:52;0.55;;;0.30;;
64140;SDS011;50436;50.618;7.932;2023-09-30T05:47:38;0.70;;;0.40;;
64140;SDS011;50436;50.618;7.932;2023-09-30T05:50:25;0.47;;;0.28;;
64140;SDS011;50436;50.618;7.932;2023-09-30T05:53:11;0.45;;;0.30;;
64140;SDS011;50436;50.618;7.932;2023-09-30T05:55:57;0.57;;;0.32;;
64140;SDS011;50436;50.618;7.932;2023-09-30T05:58:45;0.22;;;0.20;;
64140;SDS011;50436;50.618;7.932;2023-09-30T06:01:31;0.10;;;0.10;;
64140;SDS011;50436;50.618;7.932;2023-09-30T06:04:20;0.70;;;0.30;;
64140;SDS011;50436;50.618;7.932;2023-09-30T06:07:06;0.65;;;0.35;;
64140;SDS011;50436;50.618;7.932;2023-09-30T06:09:56;0.47;;;0.30;;
64140;SDS011;50436;50.618;7.932;2023-09-30T06:12:42;0.22;;;0.20;;
64140;SDS011;50436;50.618;7.932;2023-09-30T06:15:28;0.20;;;0.20;;
64140;SDS011;50436;50.618;7.932;2023-09-30T06:18:14;0.47;;;0.30;;
64140;SDS011;50436;50.618;7.932;2023-09-30T06:21:00;0.15;;;0.15;;
64140;SDS011;50436;50.618;7.932;2023-09-30T06:23:49;0.20;;;0.20;;
64140;SDS011;50436;50.618;7.932;2023-09-30T06:26:38;0.30;;;0.20;;
64140;SDS011;50436;50.618;7.932;2023-09-30T06:29:24;0.10;;;0.10;;
64140;SDS011;50436;50.618;7.932;2023-09-30T06:32:12;0.20;;;0.20;;
64140;SDS011;50436;50.618;7.932;2023-09-30T06:34:58;0.20;;;0.10;;
64140;SDS011;50436;50.618;7.932;2023-09-30T06:37:44;0.17;;;0.17;;
64140;SDS011;50436;50.618;7.932;2023-09-30T06:40:30;0.10;;;0.10;;
64140;SDS011;50436;50.618;7.932;2023-09-30T06:43:16;0.08;;;0.08;;
64140;SDS011;50436;50.618;7.932;2023-09-30T06:46:06;0.00;;;0.00;;
64140;SDS011;50436;50.618;7.932;2023-09-30T06:48:54;0.10;;;0.10;;
64140;SDS011;50436;50.618;7.932;2023-09-30T06:51:40;0.10;;;0.10;;
64140;SDS011;50436;50.618;7.932;2023-09-30T06:54:26;0.10;;;0.10;;
64140;SDS011;50436;50.618;7.932;2023-09-30T06:57:12;0.10;;;0.10;;
64140;SDS011;50436;50.618;7.932;2023-09-30T06:59:57;0.10;;;0.10;;
64140;SDS011;50436;50.618;7.932;2023-09-30T07:02:43;0.10;;;0.10;;
64140;SDS011;50436;50.618;7.932;2023-09-30T07:05:30;0.10;;;0.10;;
64140;SDS011;50436;50.618;7.932;2023-09-30T07:08:16;0.10;;;0.10;;
64140;SDS011;50436;50.618;7.932;2023-09-30T07:11:03;0.10;;;0.10;;
64140;SDS011;50436;50.618;7.932;2023-09-30T07:13:50;0.10;;;0.10;;
64140;SDS011;50436;50.618;7.932;2023-09-30T07:16:36;0.10;;;0.10;;
64140;SDS011;50436;50.618;7.932;2023-09-30T07:19:22;0.10;;;0.10;;
64140;SDS011;50436;50.618;7.932;2023-09-30T07:22:08;0.10;;;0.10;;
64140;SDS011;50436;50.618;7.932;2023-09-30T07:24:53;0.10;;;0.10;;
64140;SDS011;50436;50.618;7.932;2023-09-30T07:27:39;0.10;;;0.10;;
64140;SDS011;50436;50.618;7.932;2023-09-30T07:30:25;0.10;;;0.10;;
64140;SDS011;50436;50.618;7.932;2023-09-30T07:33:11;0.10;;;0.10;;
64140;SDS011;50436;50.618;7.932;2023-09-30T07:35:57;0.20;;;0.20;;
64140;SDS011;50436;50.618;7.932;2023-09-30T07:38:43;0.50;;;0.30;;
64140;SDS011;50436;50.618;7.932;2023-09-30T07:41:34;0.20;;;0.20;;
64140;SDS011;50436;50.618;7.932;2023-09-30T07:44:22;0.20;;;0.20;;
64140;SDS011;50436;50.618;7.932;2023-09-30T07:47:08;0.10;;;0.10;;
64140;SDS011;50436;50.618;7.932;2023-09-30T07:49:56;0.10;;;0.10;;
64140;SDS011;50436;50.618;7.932;2023-09-30T07:52:42;0.13;;;0.13;;
64140;SDS011;50436;50.618;7.932;2023-09-30T07:55:29;0.10;;;0.10;;
64140;SDS011;50436;50.618;7.932;2023-09-30T07:58:14;0.20;;;0.20;;
64140;SDS011;50436;50.618;7.932;2023-09-30T08:01:00;0.13;;;0.13;;
64140;SDS011;50436;50.618;7.932;2023-09-30T08:03:48;0.10;;;0.10;;
64140;SDS011;50436;50.618;7.932;2023-09-30T08:06:34;0.10;;;0.10;;
64140;SDS011;50436;50.618;7.932;2023-09-30T08:09:20;0.10;;;0.10;;
64140;SDS011;50436;50.618;7.932;2023-09-30T08:12:08;0.10;;;0.10;;
64140;SDS011;50436;50.618;7.932;2023-09-30T08:14:53;0.10;;;0.10;;
64140;SDS011;50436;50.618;7.932;2023-09-30T08:17:39;0.10;;;0.10;;
64140;SDS011;50436;50.618;7.932;2023-09-30T08:20:26;0.10;;;0.10;;
64140;SDS011;50436;50.618;7.932;2023-09-30T08:23:12;0.10;;;0.10;;
64140;SDS011;50436;50.618;7.932;2023-09-30T08:25:58;0.10;;;0.10;;
64140;SDS011;50436;50.618;7.932;2023-09-30T08:28:46;0.10;;;0.10;;
64140;SDS011;50436;50.618;7.932;2023-09-30T08:31:34;0.10;;;0.10;;
64140;SDS011;50436;50.618;7.932;2023-09-30T08:34:19;0.10;;;0.10;;
64140;SDS011;50436;50.618;7.932;2023-09-30T08:37:06;0.10;;;0.10;;
64140;SDS011;50436;50.618;7.932;2023-09-30T08:39:52;0.10;;;0.10;;
64140;SDS011;50436;50.618;7.932;2023-09-30T08:42:38;0.10;;;0.10;;
64140;SDS011;50436;50.618;7.932;2023-09-30T08:45:25;0.10;;;0.10;;
64140;SDS011;50436;50.618;7.932;2023-09-30T08:48:17;0.10;;;0.10;;
64140;SDS011;50436;50.618;7.932;2023-09-30T08:51:03;0.10;;;0.10;;
64140;SDS011;50436;50.618;7.932;2023-09-30T08:53:50;0.10;;;0.10;;
64140;SDS011;50436;50.618;7.932;2023-09-30T08:56:38;0.10;;;0.10;;
64140;SDS011;50436;50.618;7.932;2023-09-30T08:59:29;0.10;;;0.10;;
64140;SDS011;50436;50.618;7.932;2023-09-30T09:02:15;0.10;;;0.10;;
64140;SDS011;50436;50.618;7.932;2023-09-30T09:05:02;0.10;;;0.10;;
64140;SDS011;50436;50.618;7.932;2023-09-30T09:07:48;0.10;;;0.10;;
64140;SDS011;50436;50.618;7.932;2023-09-30T09:10:35;0.10;;;0.10;;
64140;SDS011;50436;50.618;7.932;2023-09-30T09:13:45;0.10;;;0.10;;
64140;SDS011;50436;50.618;7.932;2023-09-30T09:16:35;0.10;;;0.10;;
64140;SDS011;50436;50.618;7.932;2023-09-30T09:19:21;0.10;;;0.10;;
64140;SDS011;50436;50.618;7.932;2023-09-30T09:22:07;0.10;;;0.10;;
64140;SDS011;50436;50.618;7.932;2023-09-30T09:24:53;0.10;;;0.10;;
64140;SDS011;50436;50.618;7.932;2023-09-30T09:27:39;0.10;;;0.10;;
64140;SDS011;50436;50.618;7.932;2023-09-30T09:30:25;0.10;;;0.10;;
64140;SDS011;50436;50.618;7.932;2023-09-30T09:33:13;0.10;;;0.10;;
64140;SDS011;50436;50.618;7.932;2023-09-30T09:35:59;0.10;;;0.10;;
64140;SDS011;50436;50.618;7.932;2023-09-30T09:38:49;0.00;;;0.00;;
64140;SDS011;50436;50.618;7.932;2023-09-30T09:44:39;0.10;;;0.10;;
64140;SDS011;50436;50.618;7.932;2023-09-30T09:47:26;0.10;;;0.10;;
64140;SDS011;50436;50.618;7.932;2023-09-30T09:50:14;0.10;;;0.10;;
64140;SDS011;50436;50.618;7.932;2023-09-30T09:53:00;0.10;;;0.10;;
64140;SDS011;50436;50.618;7.932;2023-09-30T09:55:48;0.13;;;0.13;;
64140;SDS011;50436;50.618;7.932;2023-09-30T09:58:35;0.10;;;0.10;;
64140;SDS011;50436;50.618;7.932;2023-09-30T10:01:23;0.20;;;0.20;;
64140;SDS011;50436;50.618;7.932;2023-09-30T10:04:13;0.20;;;0.20;;
64140;SDS011;50436;50.618;7.932;2023-09-30T10:07:00;0.10;;;0.10;;
64140;SDS011;50436;50.618;7.932;2023-09-30T10:09:47;0.30;;;0.30;;
64140;SDS011;50436;50.618;7.932;2023-09-30T10:12:36;0.32;;;0.20;;
64140;SDS011;50436;50.618;7.932;2023-09-30T10:18:13;0.10;;;0.10;;
64140;SDS011;50436;50.618;7.932;2023-09-30T10:21:07;0.10;;;0.10;;
64140;SDS011;50436;50.618;7.932;2023-09-30T10:24:05;0.20;;;0.20;;
64140;SDS011;50436;50.618;7.932;2023-09-30T10:30:22;0.10;;;0.10;;
64140;SDS011;50436;50.618;7.932;2023-09-30T10:33:08;0.13;;;0.13;;
64140;SDS011;50436;50.618;7.932;2023-09-30T10:35:55;0.10;;;0.10;;
64140;SDS011;50436;50.618;7.932;2023-09-30T10:38:41;0.10;;;0.10;;
64140;SDS011;50436;50.618;7.932;2023-09-30T10:42:10;0.10;;;0.10;;
64140;SDS011;50436;50.618;7.932;2023-09-30T10:44:36;0.05;;;0.05;;
64140;SDS011;50436;50.618;7.932;2023-09-30T10:50:49;0.10;;;0.10;;
64140;SDS011;50436;50.618;7.932;2023-09-30T10:53:47;0.10;;;0.10;;
64140;SDS011;50436;50.618;7.932;2023-09-30T10:56:37;0.20;;;0.20;;
64140;SDS011;50436;50.618;7.932;2023-09-30T10:59:23;0.10;;;0.10;;
64140;SDS011;50436;50.618;7.932;2023-09-30T11:02:19;0.10;;;0.10;;
64140;SDS011;50436;50.618;7.932;2023-09-30T11:05:08;0.10;;;0.10;;
64140;SDS011;50436;50.618;7.932;2023-09-30T11:07:56;0.10;;;0.10;;
64140;SDS011;50436;50.618;7.932;2023-09-30T11:10:48;0.10;;;0.10;;
64140;SDS011;50436;50.618;7.932;2023-09-30T11:13:36;0.10;;;0.10;;
64140;SDS011;50436;50.618;7.932;2023-09-30T11:16:22;0.10;;;0.10;;
64140;SDS011;50436;50.618;7.932;2023-09-30T11:19:08;0.10;;;0.10;;
64140;SDS011;50436;50.618;7.932;2023-09-30T11:21:54;0.00;;;0.00;;
64140;SDS011;50436;50.618;7.932;2023-09-30T11:24:40;0.00;;;0.00;;
64140;SDS011;50436;50.618;7.932;2023-09-30T11:27:29;0.00;;;0.00;;
64140;SDS011;50436;50.618;7.932;2023-09-30T11:30:16;0.10;;;0.10;;
64140;SDS011;50436;50.618;7.932;2023-09-30T11:33:02;0.10;;;0.10;;
64140;SDS011;50436;50.618;7.932;2023-09-30T11:35:57;0.10;;;0.10;;
64140;SDS011;50436;50.618;7.932;2023-09-30T11:38:46;0.03;;;0.03;;
64140;SDS011;50436;50.618;7.932;2023-09-30T11:41:36;0.10;;;0.10;;
64140;SDS011;50436;50.618;7.932;2023-09-30T11:44:24;0.10;;;0.10;;
64140;SDS011;50436;50.618;7.932;2023-09-30T11:47:11;0.00;;;0.00;;
64140;SDS011;50436;50.618;7.932;2023-09-30T11:49:57;0.00;;;0.00;;
64140;SDS011;50436;50.618;7.932;2023-09-30T11:52:46;0.00;;;0.00;;
64140;SDS011;50436;50.618;7.932;2023-09-30T11:55:32;0.00;;;0.00;;
64140;SDS011;50436;50.618;7.932;2023-09-30T11:58:18;0.00;;;0.00;;
64140;SDS011;50436;50.618;7.932;2023-09-30T12:01:04;0.00;;;0.00;;
64140;SDS011;50436;50.618;7.932;2023-09-30T12:03:52;0.00;;;0.00;;
64140;SDS011;50436;50.618;7.932;2023-09-30T12:06:40;0.00;;;0.00;;
64140;SDS011;50436;50.618;7.932;2023-09-30T12:09:26;0.10;;;0.10;;
64140;SDS011;50436;50.618;7.932;2023-09-30T12:12:12;0.00;;;0.00;;
64140;SDS011;50436;50.618;7.932;2023-09-30T12:15:00;0.10;;;0.10;;
64140;SDS011;50436;50.618;7.932;2023-09-30T12:17:45;0.10;;;0.10;;
64140;SDS011;50436;50.618;7.932;2023-09-30T12:20:31;0.00;;;0.00;;
64140;SDS011;50436;50.618;7.932;2023-09-30T12:23:18;0.10;;;0.10;;
64140;SDS011;50436;50.618;7.932;2023-09-30T12:26:04;0.20;;;0.20;;
64140;SDS011;50436;50.618;7.932;2023-09-30T12:28:50;0.00;;;0.00;;
64140;SDS011;50436;50.618;7.932;2023-09-30T12:31:36;0.10;;;0.10;;
64140;SDS011;50436;50.618;7.932;2023-09-30T12:34:22;0.20;;;0.20;;
64140;SDS011;50436;50.618;7.932;2023-09-30T12:37:12;0.10;;;0.10;;
64140;SDS011;50436;50.618;7.932;2023-09-30T12:39:58;0.00;;;0.00;;
64140;SDS011;50436;50.618;7.932;2023-09-30T12:42:44;0.10;;;0.10;;
64140;SDS011;50436;50.618;7.932;2023-09-30T12:45:30;0.20;;;0.20;;
64140;SDS011;50436;50.618;7.932;2023-09-30T12:48:16;0.10;;;0.10;;
64140;SDS011;50436;50.618;7.932;2023-09-30T12:51:03;0.10;;;0.10;;
64140;SDS011;50436;50.618;7.932;2023-09-30T12:53:51;0.10;;;0.10;;
64140;SDS011;50436;50.618;7.932;2023-09-30T12:56:37;0.10;;;0.10;;
64140;SDS011;50436;50.618;7.932;2023-09-30T12:59:23;0.10;;;0.10;;
64140;SDS011;50436;50.618;7.932;2023-09-30T13:02:11;0.10;;;0.10;;
64140;SDS011;50436;50.618;7.932;2023-09-30T13:05:00;0.10;;;0.10;;
64140;SDS011;50436;50.618;7.932;2023-09-30T13:07:46;0.10;;;0.10;;
64140;SDS011;50436;50.618;7.932;2023-09-30T13:10:31;0.10;;;0.10;;
64140;SDS011;50436;50.618;7.932;2023-09-30T13:13:17;0.10;;;0.10;;
64140;SDS011;50436;50.618;7.932;2023-09-30T13:16:03;0.00;;;0.00;;
64140;SDS011;50436;50.618;7.932;2023-09-30T13:18:55;0.10;;;0.10;;
64140;SDS011;50436;50.618;7.932;2023-09-30T13:21:41;0.08;;;0.08;;
64140;SDS011;50436;50.618;7.932;2023-09-30T13:24:26;0.08;;;0.08;;
64140;SDS011;50436;50.618;7.932;2023-09-30T13:27:12;0.10;;;0.10;;
64140;SDS011;50436;50.618;7.932;2023-09-30T13:30:01;0.17;;;0.17;;
64140;SDS011;50436;50.618;7.932;2023-09-30T13:32:47;0.10;;;0.10;;
64140;SDS011;50436;50.618;7.932;2023-09-30T13:35:33;0.10;;;0.10;;
64140;SDS011;50436;50.618;7.932;2023-09-30T13:38:19;0.00;;;0.00;;
64140;SDS011;50436;50.618;7.932;2023-09-30T13:41:04;0.10;;;0.10;;
64140;SDS011;50436;50.618;7.932;2023-09-30T13:43:50;0.10;;;0.10;;
64140;SDS011;50436;50.618;7.932;2023-09-30T13:46:40;0.10;;;0.10;;
64140;SDS011;50436;50.618;7.932;2023-09-30T13:49:26;0.10;;;0.10;;
64140;SDS011;50436;50.618;7.932;2023-09-30T13:52:11;0.20;;;0.20;;
64140;SDS011;50436;50.618;7.932;2023-09-30T13:54:57;0.03;;;0.03;;
64140;SDS011;50436;50.618;7.932;2023-09-30T13:57:43;0.10;;;0.10;;
64140;SDS011;50436;50.618;7.932;2023-09-30T14:00:30;0.10;;;0.10;;
64140;SDS011;50436;50.618;7.932;2023-09-30T14:03:16;0.10;;;0.10;;
64140;SDS011;50436;50.618;7.932;2023-09-30T14:06:08;0.10;;;0.10;;
64140;SDS011;50436;50.618;7.932;2023-09-30T14:08:57;0.10;;;0.10;;
64140;SDS011;50436;50.618;7.932;2023-09-30T14:11:43;0.10;;;0.10;;
64140;SDS011;50436;50.618;7.932;2023-09-30T14:14:30;0.10;;;0.10;;
64140;SDS011;50436;50.618;7.932;2023-09-30T14:17:18;0.13;;;0.13;;
64140;SDS011;50436;50.618;7.932;2023-09-30T14:20:04;0.00;;;0.00;;
64140;SDS011;50436;50.618;7.932;2023-09-30T14:22:51;0.03;;;0.03;;
64140;SDS011;50436;50.618;7.932;2023-09-30T14:25:37;0.00;;;0.00;;
64140;SDS011;50436;50.618;7.932;2023-09-30T14:28:23;0.00;;;0.00;;
64140;SDS011;50436;50.618;7.932;2023-09-30T14:31:09;0.00;;;0.00;;
64140;SDS011;50436;50.618;7.932;2023-09-30T14:33:55;0.00;;;0.00;;
64140;SDS011;50436;50.618;7.932;2023-09-30T14:36:40;0.00;;;0.00;;
64140;SDS011;50436;50.618;7.932;2023-09-30T14:39:26;0.00;;;0.00;;
64140;SDS011;50436;50.618;7.932;2023-09-30T14:42:12;0.00;;;0.00;;
64140;SDS011;50436;50.618;7.932;2023-09-30T14:44:58;0.00;;;0.00;;
64140;SDS011;50436;50.618;7.932;2023-09-30T14:47:44;0.00;;;0.00;;
64140;SDS011;50436;50.618;7.932;2023-09-30T14:50:29;0.00;;;0.00;;
64140;SDS011;50436;50.618;7.932;2023-09-30T14:53:15;0.00;;;0.00;;
64140;SDS011;50436;50.618;7.932;2023-09-30T14:56:01;0.00;;;0.00;;
64140;SDS011;50436;50.618;7.932;2023-09-30T14:58:47;0.00;;;0.00;;
64140;SDS011;50436;50.618;7.932;2023-09-30T15:01:33;0.00;;;0.00;;
64140;SDS011;50436;50.618;7.932;2023-09-30T15:04:19;0.00;;;0.00;;
64140;SDS011;50436;50.618;7.932;2023-09-30T15:07:04;0.00;;;0.00;;
64140;SDS011;50436;50.618;7.932;2023-09-30T15:09:51;0.00;;;0.00;;
64140;SDS011;50436;50.618;7.932;2023-09-30T15:12:37;0.00;;;0.00;;
64140;SDS011;50436;50.618;7.932;2023-09-30T15:15:23;0.10;;;0.10;;
64140;SDS011;50436;50.618;7.932;2023-09-30T15:18:10;0.00;;;0.00;;
64140;SDS011;50436;50.618;7.932;2023-09-30T15:20:56;0.00;;;0.00;;
64140;SDS011;50436;50.618;7.932;2023-09-30T15:23:42;0.10;;;0.10;;
64140;SDS011;50436;50.618;7.932;2023-09-30T15:26:28;0.00;;;0.00;;
64140;SDS011;50436;50.618;7.932;2023-09-30T15:29:14;0.00;;;0.00;;
64140;SDS011;50436;50.618;7.932;2023-09-30T15:32:03;0.05;;;0.05;;
64140;SDS011;50436;50.618;7.932;2023-09-30T15:34:50;0.00;;;0.00;;
64140;SDS011;50436;50.618;7.932;2023-09-30T15:37:36;0.00;;;0.00;;
64140;SDS011;50436;50.618;7.932;2023-09-30T15:40:21;0.00;;;0.00;;
64140;SDS011;50436;50.618;7.932;2023-09-30T15:43:07;0.00;;;0.00;;
64140;SDS011;50436;50.618;7.932;2023-09-30T15:45:53;0.00;;;0.00;;
64140;SDS011;50436;50.618;7.932;2023-09-30T15:48:42;0.00;;;0.00;;
64140;SDS011;50436;50.618;7.932;2023-09-30T15:51:28;0.00;;;0.00;;
64140;SDS011;50436;50.618;7.932;2023-09-30T15:54:14;0.00;;;0.00;;
64140;SDS011;50436;50.618;7.932;2023-09-30T15:57:00;0.00;;;0.00;;
64140;SDS011;50436;50.618;7.932;2023-09-30T15:59:46;0.00;;;0.00;;
64140;SDS011;50436;50.618;7.932;2023-09-30T16:02:32;0.00;;;0.00;;
64140;SDS011;50436;50.618;7.932;2023-09-30T16:05:19;0.00;;;0.00;;
64140;SDS011;50436;50.618;7.932;2023-09-30T16:08:05;0.00;;;0.00;;
64140;SDS011;50436;50.618;7.932;2023-09-30T16:10:52;0.08;;;0.08;;
64140;SDS011;50436;50.618;7.932;2023-09-30T16:13:38;0.00;;;0.00;;
64140;SDS011;50436;50.618;7.932;2023-09-30T16:16:24;0.10;;;0.10;;
64140;SDS011;50436;50.618;7.932;2023-09-30T16:19:09;0.03;;;0.03;;
64140;SDS011;50436;50.618;7.932;2023-09-30T16:21:55;0.00;;;0.00;;
64140;SDS011;50436;50.618;7.932;2023-09-30T16:24:41;0.00;;;0.00;;
64140;SDS011;50436;50.618;7.932;2023-09-30T16:27:27;0.00;;;0.00;;
64140;SDS011;50436;50.618;7.932;2023-09-30T16:30:18;0.00;;;0.00;;
64140;SDS011;50436;50.618;7.932;2023-09-30T16:33:04;0.00;;;0.00;;
64140;SDS011;50436;50.618;7.932;2023-09-30T16:35:53;0.00;;;0.00;;
64140;SDS011;50436;50.618;7.932;2023-09-30T16:38:40;0.00;;;0.00;;
64140;SDS011;50436;50.618;7.932;2023-09-30T16:41:26;0.10;;;0.10;;
64140;SDS011;50436;50.618;7.932;2023-09-30T16:44:11;0.03;;;0.03;;
64140;SDS011;50436;50.618;7.932;2023-09-30T16:46:57;0.00;;;0.00;;
64140;SDS011;50436;50.618;7.932;2023-09-30T16:49:43;0.00;;;0.00;;
64140;SDS011;50436;50.618;7.932;2023-09-30T16:52:33;0.00;;;0.00;;
64140;SDS011;50436;50.618;7.932;2023-09-30T16:55:19;0.00;;;0.00;;
64140;SDS011;50436;50.618;7.932;2023-09-30T16:58:05;0.10;;;0.10;;